sensor_id;sensor_type;location;lat;lon;timestamp;pressure;altitude;pressure_sealevel;temperature;humidity
56142;BME280;42018;48.588;10.836;2022-08-21T00:02:31;96924.16;;;18.35;77.17
56142;BME280;42018;48.588;10.836;2022-08-21T00:05:17;96926.66;;;18.31;76.96
56142;BME280;42018;48.588;10.836;2022-08-21T00:08:03;96923.19;;;18.31;77.11
56142;BME280;42018;48.588;10.836;2022-08-21T00:10:49;96921.91;;;18.19;77.21
56142;BME280;42018;48.588;10.836;2022-08-21T00:13:35;96920.44;;;18.13;77.58
56142;BME280;42018;48.588;10.836;2022-08-21T00:16:21;96921.69;;;18.07;77.08
56142;BME280;42018;48.588;10.836;2022-08-21T00:19:09;96915.81;;;17.97;77.79
56142;BME280;42018;48.588;10.836;2022-08-21T00:21:55;96911.06;;;17.93;77.98
56142;BME280;42018;48.588;10.836;2022-08-21T00:24:41;96912.25;;;17.79;78.81
56142;BME280;42018;48.588;10.836;2022-08-21T00:27:26;96914.44;;;17.77;78.65
56142;BME280;42018;48.588;10.836;2022-08-21T00:30:14;96916.44;;;17.93;77.63
56142;BME280;42018;48.588;10.836;2022-08-21T00:33:03;96916.44;;;18.02;76.74
56142;BME280;42018;48.588;10.836;2022-08-21T00:35:49;96912.41;;;18.13;75.32
56142;BME280;42018;48.588;10.836;2022-08-21T00:38:35;96918.38;;;18.10;75.14
56142;BME280;42018;48.588;10.836;2022-08-21T00:41:21;96909.16;;;17.94;75.98
56142;BME280;42018;48.588;10.836;2022-08-21T00:44:10;96910.31;;;18.02;74.97
56142;BME280;42018;48.588;10.836;2022-08-21T00:46:56;96910.63;;;18.00;75.49
56142;BME280;42018;48.588;10.836;2022-08-21T00:49:42;96917.75;;;18.13;74.31
56142;BME280;42018;48.588;10.836;2022-08-21T00:52:30;96915.81;;;18.36;72.84
56142;BME280;42018;48.588;10.836;2022-08-21T00:55:18;96915.34;;;18.43;73.29
56142;BME280;42018;48.588;10.836;2022-08-21T00:58:06;96911.66;;;18.22;73.84
56142;BME280;42018;48.588;10.836;2022-08-21T01:00:53;96911.59;;;18.13;74.39
56142;BME280;42018;48.588;10.836;2022-08-21T01:03:39;96911.31;;;18.14;73.91
56142;BME280;42018;48.588;10.836;2022-08-21T01:06:25;96911.41;;;18.01;74.02
56142;BME280;42018;48.588;10.836;2022-08-21T01:09:11;96913.59;;;17.99;74.28
56142;BME280;42018;48.588;10.836;2022-08-21T01:11:56;96912.66;;;18.03;74.13
56142;BME280;42018;48.588;10.836;2022-08-21T01:14:42;96910.31;;;18.02;74.53
56142;BME280;42018;48.588;10.836;2022-08-21T01:17:28;96916.09;;;17.95;74.35
56142;BME280;42018;48.588;10.836;2022-08-21T01:20:13;96908.81;;;17.87;74.79
56142;BME280;42018;48.588;10.836;2022-08-21T01:23:04;96913.84;;;17.80;74.47
56142;BME280;42018;48.588;10.836;2022-08-21T01:25:49;96912.31;;;17.65;75.14
56142;BME280;42018;48.588;10.836;2022-08-21T01:28:39;96919.19;;;17.80;74.21
56142;BME280;42018;48.588;10.836;2022-08-21T01:31:28;96909.16;;;17.94;73.36
56142;BME280;42018;48.588;10.836;2022-08-21T01:34:14;96904.56;;;17.86;73.70
56142;BME280;42018;48.588;10.836;2022-08-21T01:37:01;96914.63;;;17.80;73.76
56142;BME280;42018;48.588;10.836;2022-08-21T01:39:46;96900.31;;;17.62;74.54
56142;BME280;42018;48.588;10.836;2022-08-21T01:42:32;96907.63;;;17.48;75.53
56142;BME280;42018;48.588;10.836;2022-08-21T01:45:19;96902.00;;;17.58;74.93
56142;BME280;42018;48.588;10.836;2022-08-21T01:48:05;96892.78;;;17.73;74.07
56142;BME280;42018;48.588;10.836;2022-08-21T01:50:50;96896.16;;;17.56;74.46
56142;BME280;42018;48.588;10.836;2022-08-21T01:53:36;96895.56;;;17.37;75.76
56142;BME280;42018;48.588;10.836;2022-08-21T01:56:21;96895.06;;;17.57;74.44
56142;BME280;42018;48.588;10.836;2022-08-21T01:59:08;96903.16;;;17.21;77.40
56142;BME280;42018;48.588;10.836;2022-08-21T02:01:54;96896.91;;;17.26;77.02
56142;BME280;42018;48.588;10.836;2022-08-21T02:04:40;96886.91;;;17.17;77.58
56142;BME280;42018;48.588;10.836;2022-08-21T02:07:25;96887.28;;;17.24;77.28
56142;BME280;42018;48.588;10.836;2022-08-21T02:10:13;96890.31;;;17.32;76.42
56142;BME280;42018;48.588;10.836;2022-08-21T02:13:00;96888.00;;;17.39;76.00
56142;BME280;42018;48.588;10.836;2022-08-21T02:15:45;96888.19;;;17.42;75.83
56142;BME280;42018;48.588;10.836;2022-08-21T02:18:31;96885.69;;;17.46;75.50
56142;BME280;42018;48.588;10.836;2022-08-21T02:21:16;96891.38;;;17.44;75.50
56142;BME280;42018;48.588;10.836;2022-08-21T02:24:02;96890.81;;;17.34;76.31
56142;BME280;42018;48.588;10.836;2022-08-21T02:26:48;96884.75;;;17.19;77.35
56142;BME280;42018;48.588;10.836;2022-08-21T02:29:33;96885.94;;;16.91;78.85
56142;BME280;42018;48.588;10.836;2022-08-21T02:32:18;96885.75;;;17.10;78.01
56142;BME280;42018;48.588;10.836;2022-08-21T02:35:04;96881.38;;;17.14;77.42
56142;BME280;42018;48.588;10.836;2022-08-21T02:37:59;96890.19;;;17.14;77.11
56142;BME280;42018;48.588;10.836;2022-08-21T02:40:47;96882.91;;;17.29;76.39
56142;BME280;42018;48.588;10.836;2022-08-21T02:43:33;96882.59;;;17.30;75.98
56142;BME280;42018;48.588;10.836;2022-08-21T02:46:19;96879.81;;;17.13;76.46
56142;BME280;42018;48.588;10.836;2022-08-21T02:49:06;96880.81;;;17.03;77.18
56142;BME280;42018;48.588;10.836;2022-08-21T02:51:51;96879.03;;;17.12;75.96
56142;BME280;42018;48.588;10.836;2022-08-21T02:54:36;96885.28;;;17.08;76.49
56142;BME280;42018;48.588;10.836;2022-08-21T02:57:22;96881.78;;;17.07;75.82
56142;BME280;42018;48.588;10.836;2022-08-21T03:00:08;96875.06;;;17.10;75.60
56142;BME280;42018;48.588;10.836;2022-08-21T03:02:56;96883.16;;;17.18;74.95
56142;BME280;42018;48.588;10.836;2022-08-21T03:05:42;96887.88;;;17.21;74.57
56142;BME280;42018;48.588;10.836;2022-08-21T03:08:28;96888.88;;;17.26;74.55
56142;BME280;42018;48.588;10.836;2022-08-21T03:11:14;96897.38;;;17.28;73.92
56142;BME280;42018;48.588;10.836;2022-08-21T03:14:00;96886.56;;;17.33;73.73
56142;BME280;42018;48.588;10.836;2022-08-21T03:16:45;96895.81;;;17.27;73.92
56142;BME280;42018;48.588;10.836;2022-08-21T03:19:31;96882.91;;;17.29;73.54
56142;BME280;42018;48.588;10.836;2022-08-21T03:22:16;96885.41;;;17.25;73.81
56142;BME280;42018;48.588;10.836;2022-08-21T03:25:03;96889.50;;;17.22;73.94
56142;BME280;42018;48.588;10.836;2022-08-21T03:27:49;96887.22;;;17.16;74.90
56142;BME280;42018;48.588;10.836;2022-08-21T03:30:35;96890.31;;;17.09;74.94
56142;BME280;42018;48.588;10.836;2022-08-21T03:33:21;96895.19;;;17.07;75.34
56142;BME280;42018;48.588;10.836;2022-08-21T03:36:07;96897.03;;;17.20;74.82
56142;BME280;42018;48.588;10.836;2022-08-21T03:38:53;96896.19;;;17.11;75.04
56142;BME280;42018;48.588;10.836;2022-08-21T03:41:39;96892.69;;;17.11;75.21
56142;BME280;42018;48.588;10.836;2022-08-21T03:44:24;96890.31;;;17.09;75.24
56142;BME280;42018;48.588;10.836;2022-08-21T03:47:10;96891.31;;;17.13;74.72
56142;BME280;42018;48.588;10.836;2022-08-21T03:49:56;96888.09;;;16.89;76.72
56142;BME280;42018;48.588;10.836;2022-08-21T03:52:41;96895.53;;;16.92;76.30
56142;BME280;42018;48.588;10.836;2022-08-21T03:55:27;96899.94;;;16.74;77.13
56142;BME280;42018;48.588;10.836;2022-08-21T03:58:17;96896.97;;;16.75;76.88
56142;BME280;42018;48.588;10.836;2022-08-21T04:01:07;96904.41;;;16.51;77.88
56142;BME280;42018;48.588;10.836;2022-08-21T04:03:52;96894.38;;;16.57;77.35
56142;BME280;42018;48.588;10.836;2022-08-21T04:06:37;96894.69;;;16.69;76.48
56142;BME280;42018;48.588;10.836;2022-08-21T04:09:23;96888.94;;;16.62;76.65
56142;BME280;42018;48.588;10.836;2022-08-21T04:12:09;96903.50;;;16.69;76.13
56142;BME280;42018;48.588;10.836;2022-08-21T04:14:54;96893.09;;;16.82;75.18
56142;BME280;42018;48.588;10.836;2022-08-21T04:17:40;96900.88;;;16.92;74.39
56142;BME280;42018;48.588;10.836;2022-08-21T04:20:26;96895.06;;;16.90;74.56
56142;BME280;42018;48.588;10.836;2022-08-21T04:23:11;96897.84;;;16.85;74.88
56142;BME280;42018;48.588;10.836;2022-08-21T04:25:57;96906.25;;;16.92;74.47
56142;BME280;42018;48.588;10.836;2022-08-21T04:28:43;96907.44;;;16.86;74.11
56142;BME280;42018;48.588;10.836;2022-08-21T04:31:29;96912.13;;;16.80;74.65
56142;BME280;42018;48.588;10.836;2022-08-21T04:34:15;96911.91;;;16.90;73.86
56142;BME280;42018;48.588;10.836;2022-08-21T04:37:00;96919.53;;;16.97;73.52
56142;BME280;42018;48.588;10.836;2022-08-21T04:39:45;96927.66;;;16.92;73.72
56142;BME280;42018;48.588;10.836;2022-08-21T04:42:31;96927.38;;;16.93;73.36
56142;BME280;42018;48.588;10.836;2022-08-21T04:45:20;96927.44;;;17.02;72.95
56142;BME280;42018;48.588;10.836;2022-08-21T04:48:09;96922.22;;;16.97;72.79
56142;BME280;42018;48.588;10.836;2022-08-21T04:51:03;96928.94;;;16.94;72.22
56142;BME280;42018;48.588;10.836;2022-08-21T04:54:06;96932.41;;;16.95;72.30
56142;BME280;42018;48.588;10.836;2022-08-21T04:56:56;96933.38;;;16.99;72.77
56142;BME280;42018;48.588;10.836;2022-08-21T04:59:48;96931.09;;;17.06;72.36
56142;BME280;42018;48.588;10.836;2022-08-21T05:02:35;96938.53;;;17.09;72.27
56142;BME280;42018;48.588;10.836;2022-08-21T05:05:21;96935.66;;;17.06;72.88
56142;BME280;42018;48.588;10.836;2022-08-21T05:08:07;96934.63;;;17.15;72.75
56142;BME280;42018;48.588;10.836;2022-08-21T05:10:54;96934.94;;;17.14;72.85
56142;BME280;42018;48.588;10.836;2022-08-21T05:13:40;96946.72;;;17.13;73.57
56142;BME280;42018;48.588;10.836;2022-08-21T05:16:29;96930.53;;;17.18;73.42
56142;BME280;42018;48.588;10.836;2022-08-21T05:19:14;96937.59;;;17.14;73.92
56142;BME280;42018;48.588;10.836;2022-08-21T05:21:59;96934.72;;;17.10;74.56
56142;BME280;42018;48.588;10.836;2022-08-21T05:24:45;96943.19;;;17.04;75.20
56142;BME280;42018;48.588;10.836;2022-08-21T05:27:31;96939.03;;;17.11;74.72
56142;BME280;42018;48.588;10.836;2022-08-21T05:30:16;96938.31;;;17.06;75.63
56142;BME280;42018;48.588;10.836;2022-08-21T05:33:03;96938.84;;;17.08;75.98
56142;BME280;42018;48.588;10.836;2022-08-21T05:35:51;96937.38;;;16.60;78.41
56142;BME280;42018;48.588;10.836;2022-08-21T05:38:37;96946.19;;;16.61;78.99
56142;BME280;42018;48.588;10.836;2022-08-21T05:41:22;96946.00;;;16.57;79.37
56142;BME280;42018;48.588;10.836;2022-08-21T05:44:08;96949.88;;;16.51;80.07
56142;BME280;42018;48.588;10.836;2022-08-21T05:46:53;96950.66;;;16.65;79.61
56142;BME280;42018;48.588;10.836;2022-08-21T05:49:38;96947.50;;;16.63;80.36
56142;BME280;42018;48.588;10.836;2022-08-21T05:52:24;96948.41;;;16.86;79.02
56142;BME280;42018;48.588;10.836;2022-08-21T05:55:09;96955.19;;;16.92;79.04
56142;BME280;42018;48.588;10.836;2022-08-21T05:57:55;96953.84;;;16.81;80.16
56142;BME280;42018;48.588;10.836;2022-08-21T06:00:40;96953.44;;;16.88;79.32
56142;BME280;42018;48.588;10.836;2022-08-21T06:03:29;96950.66;;;16.65;79.92
56142;BME280;42018;48.588;10.836;2022-08-21T06:06:14;96949.00;;;16.83;80.01
56142;BME280;42018;48.588;10.836;2022-08-21T06:09:00;96952.34;;;16.89;79.77
56142;BME280;42018;48.588;10.836;2022-08-21T06:11:46;96945.59;;;16.36;80.90
56142;BME280;42018;48.588;10.836;2022-08-21T06:14:31;96958.41;;;16.53;81.32
56142;BME280;42018;48.588;10.836;2022-08-21T06:17:17;96961.88;;;16.81;79.96
56142;BME280;42018;48.588;10.836;2022-08-21T06:20:03;96956.81;;;16.80;79.56
56142;BME280;42018;48.588;10.836;2022-08-21T06:22:49;96959.00;;;16.78;79.50
56142;BME280;42018;48.588;10.836;2022-08-21T06:25:35;96958.41;;;16.81;79.99
56142;BME280;42018;48.588;10.836;2022-08-21T06:28:21;96961.38;;;16.65;80.56
56142;BME280;42018;48.588;10.836;2022-08-21T06:31:26;96966.94;;;16.83;78.48
56142;BME280;42018;48.588;10.836;2022-08-21T06:34:12;96970.84;;;16.99;78.64
56142;BME280;42018;48.588;10.836;2022-08-21T06:36:58;96967.78;;;17.06;78.27
56142;BME280;42018;48.588;10.836;2022-08-21T06:39:43;96964.69;;;17.12;77.84
56142;BME280;42018;48.588;10.836;2022-08-21T06:42:28;96964.09;;;17.15;77.37
56142;BME280;42018;48.588;10.836;2022-08-21T06:45:14;96963.97;;;17.20;77.09
56142;BME280;42018;48.588;10.836;2022-08-21T06:47:59;96968.03;;;17.18;76.69
56142;BME280;42018;48.588;10.836;2022-08-21T06:50:45;96977.66;;;17.19;76.65
56142;BME280;42018;48.588;10.836;2022-08-21T06:53:31;96965.81;;;17.34;76.17
56142;BME280;42018;48.588;10.836;2022-08-21T06:56:16;96970.19;;;17.30;76.00
56142;BME280;42018;48.588;10.836;2022-08-21T06:59:02;96975.13;;;17.36;75.92
56142;BME280;42018;48.588;10.836;2022-08-21T07:01:47;96967.75;;;17.42;75.58
56142;BME280;42018;48.588;10.836;2022-08-21T07:04:33;96961.44;;;17.60;75.47
56142;BME280;42018;48.588;10.836;2022-08-21T07:07:18;96970.44;;;17.64;75.22
56142;BME280;42018;48.588;10.836;2022-08-21T07:10:04;96965.75;;;17.70;74.71
56142;BME280;42018;48.588;10.836;2022-08-21T07:12:51;96966.91;;;17.55;75.13
56142;BME280;42018;48.588;10.836;2022-08-21T07:15:37;96957.91;;;17.74;74.43
56142;BME280;42018;48.588;10.836;2022-08-21T07:18:22;96969.41;;;17.74;74.86
56142;BME280;42018;48.588;10.836;2022-08-21T07:21:09;96971.50;;;17.77;75.28
56142;BME280;42018;48.588;10.836;2022-08-21T07:23:54;96964.00;;;17.88;75.55
56142;BME280;42018;48.588;10.836;2022-08-21T07:26:40;96959.25;;;18.16;74.75
56142;BME280;42018;48.588;10.836;2022-08-21T07:29:26;96964.03;;;18.28;73.75
56142;BME280;42018;48.588;10.836;2022-08-21T07:32:11;96955.91;;;18.41;73.42
56142;BME280;42018;48.588;10.836;2022-08-21T07:34:56;96958.56;;;18.33;71.17
56142;BME280;42018;48.588;10.836;2022-08-21T07:37:42;96954.50;;;18.44;71.90
56142;BME280;42018;48.588;10.836;2022-08-21T07:40:27;96949.66;;;18.63;71.46
56142;BME280;42018;48.588;10.836;2022-08-21T07:43:13;96953.50;;;18.80;70.10
56142;BME280;42018;48.588;10.836;2022-08-21T07:46:00;96951.81;;;18.93;69.54
56142;BME280;42018;48.588;10.836;2022-08-21T07:48:45;96953.06;;;18.95;69.35
56142;BME280;42018;48.588;10.836;2022-08-21T07:51:31;96952.44;;;19.16;68.37
56142;BME280;42018;48.588;10.836;2022-08-21T07:54:18;96952.59;;;19.28;68.90
56142;BME280;42018;48.588;10.836;2022-08-21T07:57:04;96945.97;;;19.43;67.27
56142;BME280;42018;48.588;10.836;2022-08-21T07:59:49;96941.69;;;19.42;66.63
56142;BME280;42018;48.588;10.836;2022-08-21T08:02:35;96936.47;;;19.54;65.59
56142;BME280;42018;48.588;10.836;2022-08-21T08:05:23;96941.72;;;19.68;65.78
56142;BME280;42018;48.588;10.836;2022-08-21T08:08:09;96940.59;;;19.69;64.85
56142;BME280;42018;48.588;10.836;2022-08-21T08:10:56;96932.84;;;19.76;64.41
56142;BME280;42018;48.588;10.836;2022-08-21T08:13:45;96935.81;;;19.83;63.73
56142;BME280;42018;48.588;10.836;2022-08-21T08:16:31;96940.38;;;19.91;65.08
56142;BME280;42018;48.588;10.836;2022-08-21T08:19:17;96937.50;;;20.14;63.05
56142;BME280;42018;48.588;10.836;2022-08-21T08:22:12;96927.47;;;20.23;61.66
56142;BME280;42018;48.588;10.836;2022-08-21T08:24:58;96932.13;;;20.43;62.48
56142;BME280;42018;48.588;10.836;2022-08-21T08:27:44;96929.38;;;20.61;61.11
56142;BME280;42018;48.588;10.836;2022-08-21T08:30:30;96932.25;;;20.55;62.38
56142;BME280;42018;48.588;10.836;2022-08-21T08:33:16;96929.09;;;20.83;61.29
56142;BME280;42018;48.588;10.836;2022-08-21T08:36:02;96928.31;;;20.44;62.80
56142;BME280;42018;48.588;10.836;2022-08-21T08:38:48;96926.56;;;20.48;61.71
56142;BME280;42018;48.588;10.836;2022-08-21T08:41:33;96926.06;;;20.55;62.54
56142;BME280;42018;48.588;10.836;2022-08-21T08:44:21;96924.44;;;20.63;62.19
56142;BME280;42018;48.588;10.836;2022-08-21T08:47:17;96919.41;;;20.61;61.41
56142;BME280;42018;48.588;10.836;2022-08-21T08:50:06;96919.50;;;20.94;60.78
56142;BME280;42018;48.588;10.836;2022-08-21T08:52:59;96918.75;;;21.27;61.44
56142;BME280;42018;48.588;10.836;2022-08-21T08:55:48;96910.50;;;21.32;59.29
56142;BME280;42018;48.588;10.836;2022-08-21T08:58:37;96915.22;;;21.56;59.47
56142;BME280;42018;48.588;10.836;2022-08-21T09:01:24;96912.56;;;21.81;58.10
56142;BME280;42018;48.588;10.836;2022-08-21T09:04:11;96918.38;;;22.04;57.75
56142;BME280;42018;48.588;10.836;2022-08-21T09:10:12;96912.34;;;22.19;57.11
56142;BME280;42018;48.588;10.836;2022-08-21T09:13:06;96908.19;;;22.46;53.53
56142;BME280;42018;48.588;10.836;2022-08-21T09:19:22;96898.91;;;22.84;54.93
56142;BME280;42018;48.588;10.836;2022-08-21T09:22:33;96899.03;;;23.00;52.78
56142;BME280;42018;48.588;10.836;2022-08-21T09:25:24;96895.38;;;23.08;52.13
56142;BME280;42018;48.588;10.836;2022-08-21T09:28:11;96893.03;;;23.06;52.89
56142;BME280;42018;48.588;10.836;2022-08-21T09:30:57;96895.28;;;23.04;53.47
56142;BME280;42018;48.588;10.836;2022-08-21T09:33:47;96898.47;;;23.34;52.22
56142;BME280;42018;48.588;10.836;2022-08-21T09:36:47;96892.50;;;23.57;51.33
56142;BME280;42018;48.588;10.836;2022-08-21T09:39:38;96890.84;;;23.80;50.65
56142;BME280;42018;48.588;10.836;2022-08-21T09:42:28;96890.38;;;23.78;51.31
56142;BME280;42018;48.588;10.836;2022-08-21T09:45:17;96892.59;;;23.60;50.34
56142;BME280;42018;48.588;10.836;2022-08-21T09:51:07;96896.09;;;23.61;50.48
56142;BME280;42018;48.588;10.836;2022-08-21T09:54:17;96888.75;;;23.33;48.61
56142;BME280;42018;48.588;10.836;2022-08-21T10:00:34;96887.06;;;23.85;48.22
56142;BME280;42018;48.588;10.836;2022-08-21T10:03:20;96881.16;;;24.43;46.52
56142;BME280;42018;48.588;10.836;2022-08-21T10:06:08;96869.09;;;24.75;47.41
56142;BME280;42018;48.588;10.836;2022-08-21T10:09:14;96870.22;;;24.23;45.29
56142;BME280;42018;48.588;10.836;2022-08-21T10:14:55;96875.19;;;24.21;48.86
56142;BME280;42018;48.588;10.836;2022-08-21T10:18:06;96860.81;;;24.68;49.47
56142;BME280;42018;48.588;10.836;2022-08-21T10:21:35;96865.91;;;24.89;46.13
56142;BME280;42018;48.588;10.836;2022-08-21T10:24:32;96864.09;;;25.13;45.97
56142;BME280;42018;48.588;10.836;2022-08-21T10:28:05;96863.47;;;25.19;44.60
56142;BME280;42018;48.588;10.836;2022-08-21T10:31:45;96867.00;;;24.69;45.24
56142;BME280;42018;48.588;10.836;2022-08-21T10:37:23;96853.81;;;24.48;45.43
56142;BME280;42018;48.588;10.836;2022-08-21T10:43:29;96853.19;;;24.74;44.42
56142;BME280;42018;48.588;10.836;2022-08-21T10:55:12;96844.56;;;25.65;41.50
56142;BME280;42018;48.588;10.836;2022-08-21T10:58:08;96840.38;;;25.91;42.38
56142;BME280;42018;48.588;10.836;2022-08-21T11:01:14;96833.41;;;25.28;41.51
56142;BME280;42018;48.588;10.836;2022-08-21T11:04:11;96835.78;;;25.29;42.38
56142;BME280;42018;48.588;10.836;2022-08-21T11:07:18;96833.91;;;25.14;41.79
56142;BME280;42018;48.588;10.836;2022-08-21T11:10:33;96830.34;;;25.95;44.19
56142;BME280;42018;48.588;10.836;2022-08-21T11:16:45;96824.22;;;26.51;40.84
56142;BME280;42018;48.588;10.836;2022-08-21T11:23:19;96825.78;;;26.52;39.53
56142;BME280;42018;48.588;10.836;2022-08-21T11:26:13;96818.75;;;26.78;36.56
56142;BME280;42018;48.588;10.836;2022-08-21T11:29:34;96826.84;;;27.04;38.40
56142;BME280;42018;48.588;10.836;2022-08-21T11:38:24;96810.50;;;26.17;40.17
56142;BME280;42018;48.588;10.836;2022-08-21T11:44:26;96811.03;;;26.26;39.38
56142;BME280;42018;48.588;10.836;2022-08-21T11:50:44;96810.56;;;25.29;38.01
56142;BME280;42018;48.588;10.836;2022-08-21T11:54:02;96819.72;;;25.21;38.17
56142;BME280;42018;48.588;10.836;2022-08-21T11:57:02;96807.50;;;25.11;38.48
56142;BME280;42018;48.588;10.836;2022-08-21T12:03:15;96796.78;;;26.33;37.30
56142;BME280;42018;48.588;10.836;2022-08-21T12:06:06;96800.13;;;26.23;38.15
56142;BME280;42018;48.588;10.836;2022-08-21T12:09:51;96794.69;;;25.73;38.86
56142;BME280;42018;48.588;10.836;2022-08-21T12:12:32;96789.09;;;26.12;35.80
56142;BME280;42018;48.588;10.836;2022-08-21T12:18:21;96796.78;;;27.24;35.56
56142;BME280;42018;48.588;10.836;2022-08-21T12:21:23;96785.19;;;27.75;35.27
56142;BME280;42018;48.588;10.836;2022-08-21T12:27:01;96777.00;;;28.19;34.43
56142;BME280;42018;48.588;10.836;2022-08-21T12:30:06;96768.41;;;28.17;35.05
56142;BME280;42018;48.588;10.836;2022-08-21T12:36:20;96761.47;;;28.27;33.48
56142;BME280;42018;48.588;10.836;2022-08-21T12:39:13;96760.41;;;28.42;32.69
56142;BME280;42018;48.588;10.836;2022-08-21T12:42:05;96755.88;;;28.68;32.23
56142;BME280;42018;48.588;10.836;2022-08-21T12:45:02;96750.03;;;28.69;31.42
56142;BME280;42018;48.588;10.836;2022-08-21T12:50:53;96750.06;;;28.80;31.88
56142;BME280;42018;48.588;10.836;2022-08-21T12:53:48;96743.47;;;28.92;32.05
56142;BME280;42018;48.588;10.836;2022-08-21T12:56:39;96746.69;;;29.15;32.15
56142;BME280;42018;48.588;10.836;2022-08-21T12:59:25;96749.06;;;29.52;31.87
56142;BME280;42018;48.588;10.836;2022-08-21T13:02:20;96736.63;;;29.58;31.37
56142;BME280;42018;48.588;10.836;2022-08-21T13:05:11;96744.41;;;29.39;31.94
56142;BME280;42018;48.588;10.836;2022-08-21T13:07:57;96743.56;;;29.17;31.41
56142;BME280;42018;48.588;10.836;2022-08-21T13:10:44;96735.03;;;29.25;31.27
56142;BME280;42018;48.588;10.836;2022-08-21T13:13:32;96729.63;;;29.68;30.81
56142;BME280;42018;48.588;10.836;2022-08-21T13:16:26;96734.66;;;29.91;29.22
56142;BME280;42018;48.588;10.836;2022-08-21T13:19:17;96736.59;;;29.51;28.00
56142;BME280;42018;48.588;10.836;2022-08-21T13:22:12;96735.75;;;29.04;30.39
56142;BME280;42018;48.588;10.836;2022-08-21T13:24:58;96734.91;;;28.82;31.83
56142;BME280;42018;48.588;10.836;2022-08-21T13:27:55;96729.19;;;29.38;32.02
56142;BME280;42018;48.588;10.836;2022-08-21T13:30:44;96728.84;;;29.75;30.39
56142;BME280;42018;48.588;10.836;2022-08-21T13:33:31;96725.69;;;29.73;29.67
56142;BME280;42018;48.588;10.836;2022-08-21T13:36:29;96726.41;;;30.13;31.11
56142;BME280;42018;48.588;10.836;2022-08-21T13:39:18;96719.81;;;30.21;30.22
56142;BME280;42018;48.588;10.836;2022-08-21T13:42:11;96726.47;;;29.66;30.93
56142;BME280;42018;48.588;10.836;2022-08-21T13:44:57;96723.69;;;30.13;29.02
56142;BME280;42018;48.588;10.836;2022-08-21T13:47:44;96725.63;;;30.16;30.77
56142;BME280;42018;48.588;10.836;2022-08-21T13:50:36;96723.34;;;30.03;30.25
56142;BME280;42018;48.588;10.836;2022-08-21T13:53:33;96723.38;;;29.75;31.00
56142;BME280;42018;48.588;10.836;2022-08-21T13:56:32;96737.50;;;28.54;31.33
56142;BME280;42018;48.588;10.836;2022-08-21T13:59:31;96729.16;;;28.22;33.04
56142;BME280;42018;48.588;10.836;2022-08-21T14:02:23;96730.56;;;27.98;31.34
56142;BME280;42018;48.588;10.836;2022-08-21T14:05:30;96727.41;;;28.58;33.56
56142;BME280;42018;48.588;10.836;2022-08-21T14:08:37;96730.91;;;28.58;33.50
56142;BME280;42018;48.588;10.836;2022-08-21T14:11:31;96740.44;;;29.11;33.13
56142;BME280;42018;48.588;10.836;2022-08-21T14:14:23;96731.38;;;28.82;31.68
56142;BME280;42018;48.588;10.836;2022-08-21T14:17:13;96727.03;;;28.63;32.69
56142;BME280;42018;48.588;10.836;2022-08-21T14:19:59;96725.25;;;27.19;33.24
56142;BME280;42018;48.588;10.836;2022-08-21T14:22:46;96729.75;;;27.45;34.19
56142;BME280;42018;48.588;10.836;2022-08-21T14:25:43;96725.81;;;27.02;33.91
56142;BME280;42018;48.588;10.836;2022-08-21T14:28:32;96726.31;;;27.11;34.87
56142;BME280;42018;48.588;10.836;2022-08-21T14:31:20;96723.44;;;26.63;34.29
56142;BME280;42018;48.588;10.836;2022-08-21T14:34:06;96720.28;;;26.31;34.38
56142;BME280;42018;48.588;10.836;2022-08-21T14:36:51;96715.53;;;26.85;35.88
56142;BME280;42018;48.588;10.836;2022-08-21T14:39:37;96715.44;;;27.56;35.64
56142;BME280;42018;48.588;10.836;2022-08-21T14:42:23;96715.69;;;27.88;33.92
56142;BME280;42018;48.588;10.836;2022-08-21T14:45:26;96712.97;;;27.88;32.78
56142;BME280;42018;48.588;10.836;2022-08-21T14:48:13;96709.16;;;27.48;32.94
56142;BME280;42018;48.588;10.836;2022-08-21T14:50:58;96700.06;;;27.78;34.21
56142;BME280;42018;48.588;10.836;2022-08-21T14:53:44;96704.56;;;28.07;33.83
56142;BME280;42018;48.588;10.836;2022-08-21T14:56:31;96712.78;;;28.14;32.50
56142;BME280;42018;48.588;10.836;2022-08-21T14:59:16;96699.88;;;28.08;33.08
56142;BME280;42018;48.588;10.836;2022-08-21T15:02:03;96701.03;;;28.10;32.55
56142;BME280;42018;48.588;10.836;2022-08-21T15:04:51;96704.75;;;27.81;32.37
56142;BME280;42018;48.588;10.836;2022-08-21T15:07:36;96694.31;;;27.38;31.73
56142;BME280;42018;48.588;10.836;2022-08-21T15:10:25;96697.16;;;27.56;33.04
56142;BME280;42018;48.588;10.836;2022-08-21T15:13:11;96697.28;;;27.70;33.76
56142;BME280;42018;48.588;10.836;2022-08-21T15:15:56;96698.34;;;27.55;32.37
56142;BME280;42018;48.588;10.836;2022-08-21T15:18:42;96692.81;;;27.44;32.36
56142;BME280;42018;48.588;10.836;2022-08-21T15:21:27;96694.13;;;27.17;33.16
56142;BME280;42018;48.588;10.836;2022-08-21T15:24:13;96688.97;;;27.08;32.97
56142;BME280;42018;48.588;10.836;2022-08-21T15:27:00;96687.25;;;26.93;33.25
56142;BME280;42018;48.588;10.836;2022-08-21T15:29:46;96688.38;;;26.88;33.21
56142;BME280;42018;48.588;10.836;2022-08-21T15:32:31;96688.53;;;26.65;33.69
56142;BME280;42018;48.588;10.836;2022-08-21T15:35:17;96681.94;;;26.66;33.85
56142;BME280;42018;48.588;10.836;2022-08-21T15:38:03;96681.28;;;26.77;33.81
56142;BME280;42018;48.588;10.836;2022-08-21T15:40:49;96678.41;;;26.62;32.53
56142;BME280;42018;48.588;10.836;2022-08-21T15:43:41;96680.66;;;26.57;32.83
56142;BME280;42018;48.588;10.836;2022-08-21T15:46:27;96674.91;;;26.62;33.20
56142;BME280;42018;48.588;10.836;2022-08-21T15:49:13;96678.88;;;26.71;33.67
56142;BME280;42018;48.588;10.836;2022-08-21T15:51:58;96669.53;;;26.69;32.97